Time;durP1;ratioP1;P1;durP2;ratioP2;P2;SDS_P1;SDS_P2;PMS_P1;PMS_P2;Temp;Humidity;BMP_temperature;BMP_pressure;BME280_temperature;BME280_humidity;BME280_pressure;Samples;Min_cycle;Max_cycle;Signal;HPM_P1;HPM_P2
2023/05/11 00:00:25;;;;;;;1.02;0.40;;;;;;;;;;21007319;28;20052;-65
2023/05/11 00:10:28;;;;;;;4.00;0.40;;;;;;;;;;21006816;28;20056;-65
2023/05/11 00:20:29;;;;;;;2.00;0.57;;;;;;;;;;21005818;28;20048;-65
2023/05/11 00:30:30;;;;;;;4.20;0.43;;;;;;;;;;21006995;28;20048;-64
2023/05/11 00:40:31;;;;;;;1.83;0.50;;;;;;;;;;21006352;28;20059;-64
2023/05/11 00:50:33;;;;;;;1.50;0.70;;;;;;;;;;21004055;28;20040;-65
2023/05/11 01:00:35;;;;;;;5.07;0.75;;;;;;;;;;21004708;28;20071;-64
2023/05/11 01:10:45;;;;;;;3.60;0.82;;;;;;;;;;21001897;28;20048;-64
2023/05/11 01:20:47;;;;;;;1.70;0.80;;;;;;;;;;21001871;28;20056;-66
2023/05/11 01:30:57;;;;;;;3.50;0.82;;;;;;;;;;20999884;28;20087;-64
2023/05/11 01:40:59;;;;;;;5.90;0.77;;;;;;;;;;20998635;28;20132;-64
2023/05/11 01:51:02;;;;;;;2.42;0.70;;;;;;;;;;20999192;28;20494;-65
2023/05/11 02:01:03;;;;;;;6.53;0.90;;;;;;;;;;20998573;28;20120;-64
2023/05/11 02:11:05;;;;;;;3.97;0.73;;;;;;;;;;20996805;28;20044;-65
2023/05/11 02:21:08;;;;;;;2.40;0.70;;;;;;;;;;20996084;28;20128;-65
2023/05/11 02:31:11;;;;;;;1.60;0.60;;;;;;;;;;20997058;28;20460;-64
2023/05/11 02:41:15;;;;;;;2.60;0.60;;;;;;;;;;20995462;28;20094;-64
2023/05/11 02:51:19;;;;;;;3.33;0.60;;;;;;;;;;20995633;28;20040;-64
2023/05/11 03:01:20;;;;;;;2.90;1.02;;;;;;;;;;20994933;28;20044;-64
2023/05/11 03:11:21;;;;;;;1.95;0.77;;;;;;;;;;20994350;28;20041;-65
2023/05/11 03:21:23;;;;;;;2.97;0.70;;;;;;;;;;20994826;28;20116;-65
2023/05/11 03:31:24;;;;;;;6.22;0.70;;;;;;;;;;20994501;28;20055;-65
2023/05/11 03:41:27;;;;;;;3.45;0.70;;;;;;;;;;20995345;28;20040;-65
2023/05/11 03:51:30;;;;;;;2.42;0.73;;;;;;;;;;20993183;28;20040;-65
2023/05/11 04:01:32;;;;;;;2.55;0.88;;;;;;;;;;20995476;28;20052;-63
2023/05/11 04:11:39;;;;;;;1.63;0.60;;;;;;;;;;21009308;28;20049;-64
2023/05/11 04:21:40;;;;;;;3.25;0.88;;;;;;;;;;21008341;28;20528;-65
2023/05/11 04:31:41;;;;;;;3.05;0.80;;;;;;;;;;21006850;28;20107;-64
2023/05/11 04:41:43;;;;;;;3.28;0.90;;;;;;;;;;21007400;28;20074;-64
2023/05/11 04:51:44;;;;;;;4.10;0.80;;;;;;;;;;21006132;28;20040;-64
2023/05/11 05:01:45;;;;;;;3.95;1.15;;;;;;;;;;21005632;28;20051;-64
2023/05/11 05:11:46;;;;;;;3.97;0.95;;;;;;;;;;21004416;28;20049;-64
2023/05/11 05:21:47;;;;;;;2.97;1.23;;;;;;;;;;21002196;28;20055;-63
2023/05/11 05:31:48;;;;;;;1.98;1.00;;;;;;;;;;21002649;28;20139;-63
2023/05/11 05:41:49;;;;;;;5.80;0.88;;;;;;;;;;21000826;28;20136;-64
2023/05/11 05:51:51;;;;;;;4.07;1.05;;;;;;;;;;21001273;28;20040;-63
2023/05/11 06:01:52;;;;;;;2.15;1.00;;;;;;;;;;20999372;28;20075;-64
2023/05/11 06:11:53;;;;;;;7.45;1.20;;;;;;;;;;20999595;28;20512;-63
2023/05/11 06:21:54;;;;;;;4.20;1.15;;;;;;;;;;20998415;28;20049;-63
2023/05/11 06:31:55;;;;;;;3.47;0.88;;;;;;;;;;20997985;28;20075;-63
2023/05/11 06:41:56;;;;;;;4.15;1.00;;;;;;;;;;20996807;28;20056;-63
2023/05/11 06:51:58;;;;;;;4.70;1.10;;;;;;;;;;20995612;28;20044;-66
2023/05/11 07:01:59;;;;;;;7.28;1.42;;;;;;;;;;20996917;28;20041;-67
2023/05/11 07:12:00;;;;;;;3.85;1.10;;;;;;;;;;20996351;28;20067;-67
2023/05/11 07:22:01;;;;;;;6.97;1.38;;;;;;;;;;20994783;28;20118;-67
2023/05/11 07:32:02;;;;;;;5.18;1.23;;;;;;;;;;20994524;28;20101;-66
2023/05/11 07:42:03;;;;;;;5.93;0.90;;;;;;;;;;21006646;28;20041;-68
2023/05/11 07:52:04;;;;;;;5.30;1.42;;;;;;;;;;21011194;28;20071;-67
2023/05/11 08:02:07;;;;;;;3.20;1.00;;;;;;;;;;21010169;28;20524;-67
2023/05/11 08:12:08;;;;;;;2.00;0.80;;;;;;;;;;21009319;28;20051;-68
2023/05/11 08:22:09;;;;;;;6.40;0.98;;;;;;;;;;21008150;28;20057;-68
2023/05/11 08:32:11;;;;;;;3.10;0.88;;;;;;;;;;21006364;28;20041;-68
2023/05/11 08:42:14;;;;;;;5.13;0.80;;;;;;;;;;21006872;28;20098;-67
2023/05/11 08:52:15;;;;;;;3.17;0.93;;;;;;;;;;21003769;28;20053;-67
2023/05/11 09:02:18;;;;;;;3.80;0.85;;;;;;;;;;21005067;28;20510;-59
2023/05/11 09:12:19;;;;;;;4.97;0.90;;;;;;;;;;21003993;28;20052;-62
2023/05/11 09:22:21;;;;;;;2.92;0.80;;;;;;;;;;21001286;28;20109;-63
2023/05/11 09:32:22;;;;;;;2.70;0.60;;;;;;;;;;21000478;28;20044;-60
2023/05/11 09:42:23;;;;;;;10.27;1.92;;;;;;;;;;21001454;28;20040;-67
2023/05/11 09:52:24;;;;;;;4.10;0.80;;;;;;;;;;21000119;28;20044;-68
2023/05/11 10:02:26;;;;;;;3.33;0.85;;;;;;;;;;20998726;28;20410;-67
2023/05/11 10:12:29;;;;;;;2.10;0.90;;;;;;;;;;20999321;28;20044;-64
2023/05/11 10:22:30;;;;;;;5.35;1.00;;;;;;;;;;20997923;28;20052;-67
2023/05/11 10:32:36;;;;;;;3.60;1.00;;;;;;;;;;20996429;28;20116;-68
2023/05/11 10:43:04;;;;;;;4.10;0.95;;;;;;;;;;20995921;28;20037;-66
2023/05/11 10:53:24;;;;;;;3.08;0.98;;;;;;;;;;20980377;28;20048;-67
2023/05/11 11:03:25;;;;;;;5.88;1.00;;;;;;;;;;20997238;28;20110;-66
2023/05/11 11:13:26;;;;;;;5.28;2.13;;;;;;;;;;21000398;28;20055;-66
2023/05/11 11:23:42;;;;;;;4.80;1.00;;;;;;;;;;21012241;28;20045;-65
2023/05/11 11:33:43;;;;;;;4.03;0.50;;;;;;;;;;21010533;28;20037;-64
2023/05/11 11:43:53;;;;;;;3.45;1.00;;;;;;;;;;21009864;28;20052;-64
2023/05/11 11:53:54;;;;;;;4.82;1.02;;;;;;;;;;21010646;28;20059;-64
2023/05/11 12:03:58;;;;;;;10.52;1.27;;;;;;;;;;21009691;28;20452;-64
2023/05/11 12:14:00;;;;;;;3.80;0.85;;;;;;;;;;21008180;28;20052;-64
2023/05/11 12:24:02;;;;;;;3.60;1.27;;;;;;;;;;21006371;28;20048;-63
2023/05/11 12:34:03;;;;;;;4.82;0.75;;;;;;;;;;21006284;28;20485;-64
2023/05/11 12:44:04;;;;;;;2.50;0.70;;;;;;;;;;21006309;28;20041;-65
2023/05/11 12:54:05;;;;;;;4.43;1.23;;;;;;;;;;21004274;28;20417;-64
2023/05/11 13:04:07;;;;;;;3.13;1.00;;;;;;;;;;21004462;28;20119;-64
2023/05/11 13:14:15;;;;;;;4.57;0.88;;;;;;;;;;21002283;28;20045;-64
2023/05/11 13:24:20;;;;;;;6.03;1.05;;;;;;;;;;21002192;28;20205;-64
2023/05/11 13:34:21;;;;;;;3.05;0.90;;;;;;;;;;21000455;28;20051;-64
2023/05/11 13:44:22;;;;;;;1.13;0.50;;;;;;;;;;21001733;28;20049;-64
2023/05/11 13:54:23;;;;;;;2.97;0.80;;;;;;;;;;20999555;28;20087;-65
2023/05/11 14:04:25;;;;;;;2.50;0.52;;;;;;;;;;21000046;28;20044;-64
2023/05/11 14:14:26;;;;;;;3.13;0.80;;;;;;;;;;20997324;28;20052;-65
2023/05/11 14:24:27;;;;;;;2.67;0.68;;;;;;;;;;20997910;28;20509;-65
2023/05/11 14:34:28;;;;;;;3.50;0.60;;;;;;;;;;20996931;28;20075;-64
2023/05/11 14:44:30;;;;;;;3.10;0.52;;;;;;;;;;20997457;28;20048;-65
2023/05/11 14:54:31;;;;;;;4.32;0.60;;;;;;;;;;20997183;28;20044;-64
2023/05/11 15:04:33;;;;;;;2.10;0.43;;;;;;;;;;20995444;28;20048;-65
2023/05/11 15:14:34;;;;;;;2.50;0.60;;;;;;;;;;20996339;28;20440;-65
2023/05/11 15:24:35;;;;;;;3.85;0.90;;;;;;;;;;20996751;28;20048;-65
2023/05/11 15:34:37;;;;;;;2.97;0.35;;;;;;;;;;20996075;28;20048;-67
2023/05/11 15:44:38;;;;;;;1.15;0.30;;;;;;;;;;20995397;28;20515;-64
2023/05/11 15:54:39;;;;;;;1.63;0.52;;;;;;;;;;20994881;28;20500;-65
2023/05/11 16:04:40;;;;;;;1.85;0.22;;;;;;;;;;21006320;28;20044;-64
2023/05/11 16:14:41;;;;;;;2.85;0.60;;;;;;;;;;21009818;28;20044;-64
2023/05/11 16:24:42;;;;;;;2.70;0.40;;;;;;;;;;21007524;28;20052;-69
2023/05/11 16:34:44;;;;;;;3.35;0.52;;;;;;;;;;21007858;28;20048;-64
2023/05/11 16:44:45;;;;;;;0.73;0.20;;;;;;;;;;21006893;28;20098;-62
2023/05/11 16:54:46;;;;;;;3.33;0.40;;;;;;;;;;21006164;28;20405;-68
2023/05/11 17:04:48;;;;;;;2.05;0.50;;;;;;;;;;21004936;28;20119;-69
2023/05/11 17:14:49;;;;;;;0.38;0.25;;;;;;;;;;21001896;28;20166;-66
2023/05/11 17:24:50;;;;;;;2.28;0.40;;;;;;;;;;21001756;28;20056;-67
2023/05/11 17:34:51;;;;;;;2.83;0.60;;;;;;;;;;21002611;28;20040;-65
2023/05/11 17:44:52;;;;;;;2.92;0.47;;;;;;;;;;21001180;28;20044;-65
2023/05/11 17:54:53;;;;;;;3.25;0.80;;;;;;;;;;21000498;28;20114;-65
2023/05/11 18:04:54;;;;;;;4.10;0.60;;;;;;;;;;21000589;28;20418;-65
2023/05/11 18:14:56;;;;;;;1.88;0.50;;;;;;;;;;20998440;28;20048;-66
2023/05/11 18:24:58;;;;;;;1.98;0.60;;;;;;;;;;20998135;28;20064;-65
2023/05/11 18:34:59;;;;;;;1.45;0.40;;;;;;;;;;20997949;28;20044;-67
2023/05/11 18:45:00;;;;;;;3.22;0.77;;;;;;;;;;20997395;28;20052;-66
2023/05/11 18:55:01;;;;;;;3.83;0.88;;;;;;;;;;20996880;28;20045;-66
2023/05/11 19:05:06;;;;;;;2.15;0.80;;;;;;;;;;20995594;28;20135;-65
2023/05/11 19:15:07;;;;;;;3.15;0.40;;;;;;;;;;20995682;28;20044;-65
2023/05/11 19:25:09;;;;;;;1.20;0.40;;;;;;;;;;20994350;28;20071;-62
2023/05/11 19:35:11;;;;;;;2.55;0.70;;;;;;;;;;20999861;28;20041;-61
2023/05/11 19:45:13;;;;;;;4.00;0.80;;;;;;;;;;21010853;28;20068;-61
2023/05/11 19:55:14;;;;;;;1.85;0.50;;;;;;;;;;21009775;28;20044;-62
2023/05/11 20:05:16;;;;;;;2.75;0.47;;;;;;;;;;21008500;28;20413;-63
2023/05/11 20:15:17;;;;;;;1.42;0.60;;;;;;;;;;21006811;28;20052;-61
2023/05/11 20:25:18;;;;;;;3.05;0.73;;;;;;;;;;21006529;28;20082;-62
2023/05/11 20:35:21;;;;;;;2.17;1.00;;;;;;;;;;21005919;28;20088;-62
2023/05/11 20:45:22;;;;;;;1.63;0.70;;;;;;;;;;21006312;28;20123;-61
2023/05/11 20:55:23;;;;;;;2.17;0.70;;;;;;;;;;21003791;28;20045;-62
2023/05/11 21:05:24;;;;;;;1.52;0.43;;;;;;;;;;21004516;28;20064;-63
2023/05/11 21:15:25;;;;;;;1.35;0.50;;;;;;;;;;21002156;28;20045;-62
2023/05/11 21:25:27;;;;;;;2.22;0.60;;;;;;;;;;21002090;28;20116;-61
2023/05/11 21:35:28;;;;;;;2.75;0.60;;;;;;;;;;21001471;28;20535;-61
2023/05/11 21:45:29;;;;;;;0.90;0.30;;;;;;;;;;21001068;28;20048;-61
2023/05/11 21:55:30;;;;;;;3.13;0.55;;;;;;;;;;20999721;28;20076;-61
2023/05/11 22:05:31;;;;;;;1.10;0.35;;;;;;;;;;20998440;28;20044;-61
2023/05/11 22:15:32;;;;;;;3.22;0.20;;;;;;;;;;20998651;28;20546;-62
2023/05/11 22:25:33;;;;;;;2.65;0.30;;;;;;;;;;20997874;28;20052;-62
2023/05/11 22:35:34;;;;;;;0.75;0.30;;;;;;;;;;20997435;28;20044;-62
2023/05/11 22:45:36;;;;;;;1.13;0.35;;;;;;;;;;20996135;28;20094;-61
2023/05/11 22:55:37;;;;;;;0.82;0.25;;;;;;;;;;20995647;28;20044;-61
2023/05/11 23:05:38;;;;;;;1.75;0.40;;;;;;;;;;20993792;28;20045;-61
2023/05/11 23:15:39;;;;;;;2.15;0.30;;;;;;;;;;20993480;28;20110;-61
2023/05/11 23:25:40;;;;;;;2.40;0.32;;;;;;;;;;20993920;28;20055;-61
2023/05/11 23:35:42;;;;;;;0.73;0.22;;;;;;;;;;20994589;28;20081;-61
2023/05/11 23:45:43;;;;;;;5.47;0.35;;;;;;;;;;20993379;28;20045;-61
2023/05/11 23:55:47;;;;;;;2.25;0.35;;;;;;;;;;20994175;28;20045;-61
